To NAV CANADA Home Page Login to a new session Search on AWWS site Feedback and Comments Disclaimer Vers la page française équivalente Tips FAQ What's new on the site To the Forecasts and Observations / NOTAM section To "File a Flight Plan" website Publications and other links Update of the User's profile FIC Telephone Numbers My Weather Data Folder Route Weather Data Regional Weather Data Local Weather Data To the Forecasts and Observations / NOTAM section
Request Generated 08/22/2017 at 01:38:55 UTC . Weather information available at that time is displayed.

METAR/TAF

WINDSOR/ON    

METAR CYQG 220100Z 18006KT 10SM SCT047 BKN200 25/23 A2999 RMK CU3CC2
SLP154 DENSITY ALT 1900FT=
METAR CYQG 220000Z 19006KT 7SM FEW060 FEW120 SCT250 BKN290 26/22
A3000 RMK SC1AC2CI1CC3 SC TR SLP157 DENSITY ALT 2000FT=
METAR CYQG 212300Z 17011KT 7SM FEW030CB SCT280 SCT320 28/21 A2999 RMK
CB2CI2CI1 CI TR CB TOPS DIST S-N CONTRAILS SLP155 DENSITY ALT 2200FT=

TAF CYQG 212342Z 2200/2224 18010KT P6SM FEW040 SCT240
FM221000 22013KT 6SM BR SCT010 BKN060 OVC200
FM221200 21015KT 6SM -SHRA BR BKN010 OVC060 PROB30 2213/2215
VRB25G40KT 1SM +TSRA BR BKN008 OVC040CB
FM221600 24015G25KT P6SM BKN020 OVC220
FM222100 30020G30KT P6SM BKN030
FM222300 31012G22KT P6SM FEW030
RMK NXT FCST BY 220600Z=
Your time UTC time
Weather data provided by Environment Canada and NAV CANADA